sensor_id;sensor_type;location;lat;lon;timestamp;P1;durP1;ratioP1;P2;durP2;ratioP2
29724;SDS011;16636;48.394;15.468;2022-10-31T00:00:39;1.98;;;1.48;;
29724;SDS011;16636;48.394;15.468;2022-10-31T00:03:05;2.60;;;1.83;;
29724;SDS011;16636;48.394;15.468;2022-10-31T00:05:31;4.60;;;2.35;;
29724;SDS011;16636;48.394;15.468;2022-10-31T00:07:57;1.77;;;1.33;;
29724;SDS011;16636;48.394;15.468;2022-10-31T00:10:23;3.72;;;2.08;;
29724;SDS011;16636;48.394;15.468;2022-10-31T00:12:49;3.63;;;2.00;;
29724;SDS011;16636;48.394;15.468;2022-10-31T00:15:16;3.42;;;2.10;;
29724;SDS011;16636;48.394;15.468;2022-10-31T00:17:42;4.65;;;2.22;;
29724;SDS011;16636;48.394;15.468;2022-10-31T00:20:08;2.72;;;1.83;;
29724;SDS011;16636;48.394;15.468;2022-10-31T00:22:34;2.92;;;2.15;;
29724;SDS011;16636;48.394;15.468;2022-10-31T00:25:00;4.05;;;2.05;;
29724;SDS011;16636;48.394;15.468;2022-10-31T00:27:25;6.68;;;2.17;;
29724;SDS011;16636;48.394;15.468;2022-10-31T00:29:53;5.70;;;2.10;;
29724;SDS011;16636;48.394;15.468;2022-10-31T00:32:20;3.58;;;2.00;;
29724;SDS011;16636;48.394;15.468;2022-10-31T00:34:46;4.97;;;2.50;;
29724;SDS011;16636;48.394;15.468;2022-10-31T00:37:12;4.82;;;2.70;;
29724;SDS011;16636;48.394;15.468;2022-10-31T00:39:38;4.00;;;2.28;;
29724;SDS011;16636;48.394;15.468;2022-10-31T00:42:03;3.28;;;2.30;;
29724;SDS011;16636;48.394;15.468;2022-10-31T00:44:29;6.05;;;2.53;;
29724;SDS011;16636;48.394;15.468;2022-10-31T00:46:55;3.90;;;2.22;;
29724;SDS011;16636;48.394;15.468;2022-10-31T00:49:21;3.72;;;2.22;;
29724;SDS011;16636;48.394;15.468;2022-10-31T00:51:47;3.97;;;1.90;;
29724;SDS011;16636;48.394;15.468;2022-10-31T00:54:13;5.22;;;1.88;;
29724;SDS011;16636;48.394;15.468;2022-10-31T00:56:39;3.40;;;1.98;;
29724;SDS011;16636;48.394;15.468;2022-10-31T00:59:04;3.88;;;2.63;;
29724;SDS011;16636;48.394;15.468;2022-10-31T01:01:30;4.63;;;2.67;;
29724;SDS011;16636;48.394;15.468;2022-10-31T01:03:56;3.55;;;2.30;;
29724;SDS011;16636;48.394;15.468;2022-10-31T01:06:22;3.03;;;2.20;;
29724;SDS011;16636;48.394;15.468;2022-10-31T01:08:48;6.55;;;2.50;;
29724;SDS011;16636;48.394;15.468;2022-10-31T01:11:18;2.75;;;2.10;;
29724;SDS011;16636;48.394;15.468;2022-10-31T01:13:46;3.83;;;2.28;;
29724;SDS011;16636;48.394;15.468;2022-10-31T01:16:14;2.95;;;1.88;;
29724;SDS011;16636;48.394;15.468;2022-10-31T01:18:41;4.50;;;2.25;;
29724;SDS011;16636;48.394;15.468;2022-10-31T01:21:09;7.95;;;3.05;;
29724;SDS011;16636;48.394;15.468;2022-10-31T01:23:38;4.30;;;2.33;;
29724;SDS011;16636;48.394;15.468;2022-10-31T01:26:05;3.40;;;2.65;;
29724;SDS011;16636;48.394;15.468;2022-10-31T01:28:46;5.72;;;2.50;;
29724;SDS011;16636;48.394;15.468;2022-10-31T01:31:20;3.83;;;2.40;;
29724;SDS011;16636;48.394;15.468;2022-10-31T01:33:47;8.52;;;2.55;;
29724;SDS011;16636;48.394;15.468;2022-10-31T01:36:15;3.88;;;2.00;;
29724;SDS011;16636;48.394;15.468;2022-10-31T01:39:02;5.50;;;2.97;;
29724;SDS011;16636;48.394;15.468;2022-10-31T01:41:31;5.68;;;2.40;;
29724;SDS011;16636;48.394;15.468;2022-10-31T01:44:43;4.70;;;2.55;;
29724;SDS011;16636;48.394;15.468;2022-10-31T01:52:04;8.52;;;2.28;;
29724;SDS011;16636;48.394;15.468;2022-10-31T01:54:35;4.55;;;1.92;;
29724;SDS011;16636;48.394;15.468;2022-10-31T01:57:05;5.23;;;3.00;;
29724;SDS011;16636;48.394;15.468;2022-10-31T01:59:34;6.13;;;2.85;;
29724;SDS011;16636;48.394;15.468;2022-10-31T02:02:06;3.10;;;2.33;;
29724;SDS011;16636;48.394;15.468;2022-10-31T02:04:32;3.33;;;2.33;;
29724;SDS011;16636;48.394;15.468;2022-10-31T02:07:03;4.47;;;2.47;;
29724;SDS011;16636;48.394;15.468;2022-10-31T02:09:32;4.18;;;2.58;;
29724;SDS011;16636;48.394;15.468;2022-10-31T02:12:01;5.68;;;2.28;;
29724;SDS011;16636;48.394;15.468;2022-10-31T02:14:28;2.55;;;2.20;;
29724;SDS011;16636;48.394;15.468;2022-10-31T02:16:56;2.25;;;1.80;;
29724;SDS011;16636;48.394;15.468;2022-10-31T02:22:13;3.85;;;1.65;;
29724;SDS011;16636;48.394;15.468;2022-10-31T02:30:27;5.40;;;2.17;;
29724;SDS011;16636;48.394;15.468;2022-10-31T02:35:40;4.97;;;2.00;;
29724;SDS011;16636;48.394;15.468;2022-10-31T02:38:19;4.53;;;1.67;;
29724;SDS011;16636;48.394;15.468;2022-10-31T02:41:46;1.63;;;1.45;;
29724;SDS011;16636;48.394;15.468;2022-10-31T02:47:08;2.85;;;1.75;;
29724;SDS011;16636;48.394;15.468;2022-10-31T02:52:42;4.25;;;1.70;;
29724;SDS011;16636;48.394;15.468;2022-10-31T02:57:57;3.13;;;1.77;;
29724;SDS011;16636;48.394;15.468;2022-10-31T03:00:31;2.10;;;1.35;;
29724;SDS011;16636;48.394;15.468;2022-10-31T03:03:06;2.42;;;1.38;;
29724;SDS011;16636;48.394;15.468;2022-10-31T03:05:58;2.95;;;1.70;;
29724;SDS011;16636;48.394;15.468;2022-10-31T03:11:39;1.50;;;1.40;;
29724;SDS011;16636;48.394;15.468;2022-10-31T03:14:34;2.03;;;1.20;;
29724;SDS011;16636;48.394;15.468;2022-10-31T03:17:22;1.83;;;1.30;;
29724;SDS011;16636;48.394;15.468;2022-10-31T03:19:58;1.83;;;0.93;;
29724;SDS011;16636;48.394;15.468;2022-10-31T03:22:27;2.72;;;1.20;;
29724;SDS011;16636;48.394;15.468;2022-10-31T03:24:57;1.65;;;1.35;;
29724;SDS011;16636;48.394;15.468;2022-10-31T03:27:26;2.17;;;1.27;;
29724;SDS011;16636;48.394;15.468;2022-10-31T03:30:09;2.15;;;0.90;;
29724;SDS011;16636;48.394;15.468;2022-10-31T03:32:56;4.40;;;1.42;;
29724;SDS011;16636;48.394;15.468;2022-10-31T03:35:25;1.65;;;1.20;;
29724;SDS011;16636;48.394;15.468;2022-10-31T03:37:53;2.92;;;1.35;;
29724;SDS011;16636;48.394;15.468;2022-10-31T03:40:21;1.35;;;1.17;;
29724;SDS011;16636;48.394;15.468;2022-10-31T03:42:57;3.05;;;1.52;;
29724;SDS011;16636;48.394;15.468;2022-10-31T03:45:26;1.08;;;0.98;;
29724;SDS011;16636;48.394;15.468;2022-10-31T03:47:55;1.00;;;0.90;;
29724;SDS011;16636;48.394;15.468;2022-10-31T03:50:24;2.30;;;1.30;;
29724;SDS011;16636;48.394;15.468;2022-10-31T03:52:56;1.38;;;1.10;;
29724;SDS011;16636;48.394;15.468;2022-10-31T03:55:50;1.88;;;1.00;;
29724;SDS011;16636;48.394;15.468;2022-10-31T03:58:38;0.85;;;0.82;;
29724;SDS011;16636;48.394;15.468;2022-10-31T04:01:11;1.08;;;0.98;;
29724;SDS011;16636;48.394;15.468;2022-10-31T04:03:41;1.08;;;0.88;;
29724;SDS011;16636;48.394;15.468;2022-10-31T04:06:10;1.67;;;0.90;;
29724;SDS011;16636;48.394;15.468;2022-10-31T04:08:44;1.60;;;0.85;;
29724;SDS011;16636;48.394;15.468;2022-10-31T04:11:17;1.70;;;0.88;;
29724;SDS011;16636;48.394;15.468;2022-10-31T04:13:57;0.90;;;0.90;;
29724;SDS011;16636;48.394;15.468;2022-10-31T04:16:27;1.10;;;1.00;;
29724;SDS011;16636;48.394;15.468;2022-10-31T04:18:53;2.08;;;0.90;;
29724;SDS011;16636;48.394;15.468;2022-10-31T04:21:19;1.92;;;0.90;;
29724;SDS011;16636;48.394;15.468;2022-10-31T04:23:53;1.02;;;0.73;;
29724;SDS011;16636;48.394;15.468;2022-10-31T04:26:24;1.27;;;0.90;;
29724;SDS011;16636;48.394;15.468;2022-10-31T04:28:50;2.55;;;0.98;;
29724;SDS011;16636;48.394;15.468;2022-10-31T04:31:16;1.75;;;0.85;;
29724;SDS011;16636;48.394;15.468;2022-10-31T04:33:44;3.20;;;1.20;;
29724;SDS011;16636;48.394;15.468;2022-10-31T04:36:10;1.58;;;0.93;;
29724;SDS011;16636;48.394;15.468;2022-10-31T04:38:36;1.10;;;1.00;;
29724;SDS011;16636;48.394;15.468;2022-10-31T04:41:10;1.58;;;1.00;;
29724;SDS011;16636;48.394;15.468;2022-10-31T04:43:49;2.88;;;0.85;;
29724;SDS011;16636;48.394;15.468;2022-10-31T04:46:22;1.08;;;0.98;;
29724;SDS011;16636;48.394;15.468;2022-10-31T04:48:48;3.13;;;1.23;;
29724;SDS011;16636;48.394;15.468;2022-10-31T04:51:15;1.98;;;0.90;;
29724;SDS011;16636;48.394;15.468;2022-10-31T04:53:41;2.30;;;1.10;;
29724;SDS011;16636;48.394;15.468;2022-10-31T04:56:42;2.65;;;0.95;;
29724;SDS011;16636;48.394;15.468;2022-10-31T04:59:13;1.40;;;0.75;;
29724;SDS011;16636;48.394;15.468;2022-10-31T05:01:50;1.95;;;0.93;;
29724;SDS011;16636;48.394;15.468;2022-10-31T05:04:20;1.30;;;0.93;;
29724;SDS011;16636;48.394;15.468;2022-10-31T05:06:46;0.80;;;0.80;;
29724;SDS011;16636;48.394;15.468;2022-10-31T05:09:12;5.93;;;1.13;;
29724;SDS011;16636;48.394;15.468;2022-10-31T05:11:38;1.60;;;0.90;;
29724;SDS011;16636;48.394;15.468;2022-10-31T05:14:21;2.17;;;1.38;;
29724;SDS011;16636;48.394;15.468;2022-10-31T05:17:05;2.20;;;0.93;;
29724;SDS011;16636;48.394;15.468;2022-10-31T05:19:57;1.63;;;1.17;;
29724;SDS011;16636;48.394;15.468;2022-10-31T05:22:49;1.10;;;0.95;;
29724;SDS011;16636;48.394;15.468;2022-10-31T05:25:17;1.50;;;0.98;;
29724;SDS011;16636;48.394;15.468;2022-10-31T05:27:45;1.08;;;1.00;;
29724;SDS011;16636;48.394;15.468;2022-10-31T05:30:13;1.65;;;1.05;;
29724;SDS011;16636;48.394;15.468;2022-10-31T05:32:41;1.23;;;0.93;;
29724;SDS011;16636;48.394;15.468;2022-10-31T05:35:28;3.67;;;0.95;;
29724;SDS011;16636;48.394;15.468;2022-10-31T05:38:16;1.25;;;1.08;;
29724;SDS011;16636;48.394;15.468;2022-10-31T05:40:42;1.83;;;1.00;;
29724;SDS011;16636;48.394;15.468;2022-10-31T05:43:08;1.38;;;1.02;;
29724;SDS011;16636;48.394;15.468;2022-10-31T05:45:34;1.48;;;0.90;;
29724;SDS011;16636;48.394;15.468;2022-10-31T05:48:05;3.65;;;0.73;;
29724;SDS011;16636;48.394;15.468;2022-10-31T05:51:03;2.88;;;1.27;;
29724;SDS011;16636;48.394;15.468;2022-10-31T05:53:29;2.60;;;0.82;;
29724;SDS011;16636;48.394;15.468;2022-10-31T05:56:13;3.72;;;1.38;;
29724;SDS011;16636;48.394;15.468;2022-10-31T05:58:40;5.05;;;1.20;;
29724;SDS011;16636;48.394;15.468;2022-10-31T06:01:06;7.20;;;3.22;;
29724;SDS011;16636;48.394;15.468;2022-10-31T06:03:32;2.58;;;1.70;;
29724;SDS011;16636;48.394;15.468;2022-10-31T06:06:01;5.13;;;2.10;;
29724;SDS011;16636;48.394;15.468;2022-10-31T06:08:36;4.50;;;2.30;;
29724;SDS011;16636;48.394;15.468;2022-10-31T06:11:06;9.07;;;3.92;;
29724;SDS011;16636;48.394;15.468;2022-10-31T06:14:10;10.63;;;5.40;;
29724;SDS011;16636;48.394;15.468;2022-10-31T06:16:56;8.57;;;4.78;;
29724;SDS011;16636;48.394;15.468;2022-10-31T06:19:37;11.27;;;4.50;;
29724;SDS011;16636;48.394;15.468;2022-10-31T06:22:03;9.88;;;3.92;;
29724;SDS011;16636;48.394;15.468;2022-10-31T06:24:31;11.32;;;4.38;;
29724;SDS011;16636;48.394;15.468;2022-10-31T06:27:15;9.88;;;2.72;;
29724;SDS011;16636;48.394;15.468;2022-10-31T06:29:41;6.55;;;2.35;;
29724;SDS011;16636;48.394;15.468;2022-10-31T06:32:11;3.78;;;1.80;;
29724;SDS011;16636;48.394;15.468;2022-10-31T06:34:41;3.22;;;1.85;;
29724;SDS011;16636;48.394;15.468;2022-10-31T06:37:08;6.78;;;1.23;;
29724;SDS011;16636;48.394;15.468;2022-10-31T06:39:40;2.03;;;1.13;;
29724;SDS011;16636;48.394;15.468;2022-10-31T06:42:08;3.17;;;1.35;;
29724;SDS011;16636;48.394;15.468;2022-10-31T06:44:34;2.53;;;1.17;;
29724;SDS011;16636;48.394;15.468;2022-10-31T06:47:18;2.33;;;1.10;;
29724;SDS011;16636;48.394;15.468;2022-10-31T06:50:14;4.13;;;1.13;;
29724;SDS011;16636;48.394;15.468;2022-10-31T06:52:40;5.95;;;1.15;;
29724;SDS011;16636;48.394;15.468;2022-10-31T06:55:06;2.17;;;1.30;;
29724;SDS011;16636;48.394;15.468;2022-10-31T06:57:32;4.63;;;1.00;;
29724;SDS011;16636;48.394;15.468;2022-10-31T06:59:58;2.85;;;1.48;;
29724;SDS011;16636;48.394;15.468;2022-10-31T07:03:06;1.40;;;1.10;;
29724;SDS011;16636;48.394;15.468;2022-10-31T07:05:35;1.98;;;1.45;;
29724;SDS011;16636;48.394;15.468;2022-10-31T07:08:02;1.58;;;1.27;;
29724;SDS011;16636;48.394;15.468;2022-10-31T07:10:30;1.92;;;1.10;;
29724;SDS011;16636;48.394;15.468;2022-10-31T07:13:02;2.47;;;1.50;;
29724;SDS011;16636;48.394;15.468;2022-10-31T07:15:35;2.80;;;1.75;;
29724;SDS011;16636;48.394;15.468;2022-10-31T07:18:03;1.83;;;1.15;;
29724;SDS011;16636;48.394;15.468;2022-10-31T07:20:30;2.03;;;1.35;;
29724;SDS011;16636;48.394;15.468;2022-10-31T07:22:57;3.30;;;1.27;;
29724;SDS011;16636;48.394;15.468;2022-10-31T07:25:23;1.73;;;1.08;;
29724;SDS011;16636;48.394;15.468;2022-10-31T07:28:25;3.90;;;1.25;;
29724;SDS011;16636;48.394;15.468;2022-10-31T07:30:52;1.75;;;1.08;;
29724;SDS011;16636;48.394;15.468;2022-10-31T07:33:20;2.47;;;1.50;;
29724;SDS011;16636;48.394;15.468;2022-10-31T07:38:32;3.78;;;1.33;;
29724;SDS011;16636;48.394;15.468;2022-10-31T07:41:02;2.05;;;1.30;;
29724;SDS011;16636;48.394;15.468;2022-10-31T07:43:30;2.55;;;1.40;;
29724;SDS011;16636;48.394;15.468;2022-10-31T07:46:19;2.25;;;1.35;;
29724;SDS011;16636;48.394;15.468;2022-10-31T07:49:13;1.80;;;1.60;;
29724;SDS011;16636;48.394;15.468;2022-10-31T07:51:58;1.83;;;1.33;;
29724;SDS011;16636;48.394;15.468;2022-10-31T07:54:42;6.38;;;1.42;;
29724;SDS011;16636;48.394;15.468;2022-10-31T07:57:08;4.70;;;1.40;;
29724;SDS011;16636;48.394;15.468;2022-10-31T07:59:35;2.72;;;1.48;;
29724;SDS011;16636;48.394;15.468;2022-10-31T08:02:01;2.72;;;1.38;;
29724;SDS011;16636;48.394;15.468;2022-10-31T08:04:30;2.40;;;1.15;;
29724;SDS011;16636;48.394;15.468;2022-10-31T08:07:15;2.35;;;1.60;;
29724;SDS011;16636;48.394;15.468;2022-10-31T08:09:47;1.55;;;1.02;;
29724;SDS011;16636;48.394;15.468;2022-10-31T08:12:19;2.55;;;1.45;;
29724;SDS011;16636;48.394;15.468;2022-10-31T08:14:45;8.65;;;1.52;;
29724;SDS011;16636;48.394;15.468;2022-10-31T08:17:13;3.33;;;1.67;;
29724;SDS011;16636;48.394;15.468;2022-10-31T08:19:59;1.98;;;1.30;;
29724;SDS011;16636;48.394;15.468;2022-10-31T08:22:32;3.28;;;2.00;;
29724;SDS011;16636;48.394;15.468;2022-10-31T08:24:59;4.07;;;1.75;;
29724;SDS011;16636;48.394;15.468;2022-10-31T08:27:26;7.28;;;1.60;;
29724;SDS011;16636;48.394;15.468;2022-10-31T08:29:55;3.17;;;1.73;;
29724;SDS011;16636;48.394;15.468;2022-10-31T08:32:21;3.97;;;1.70;;
29724;SDS011;16636;48.394;15.468;2022-10-31T08:34:56;2.25;;;1.38;;
29724;SDS011;16636;48.394;15.468;2022-10-31T08:37:41;2.42;;;1.77;;
29724;SDS011;16636;48.394;15.468;2022-10-31T08:40:07;2.35;;;1.40;;
29724;SDS011;16636;48.394;15.468;2022-10-31T08:42:34;2.17;;;1.20;;
29724;SDS011;16636;48.394;15.468;2022-10-31T08:45:00;1.83;;;1.52;;
29724;SDS011;16636;48.394;15.468;2022-10-31T08:47:27;3.08;;;2.05;;
29724;SDS011;16636;48.394;15.468;2022-10-31T08:49:54;2.67;;;1.40;;
29724;SDS011;16636;48.394;15.468;2022-10-31T08:52:24;2.42;;;1.60;;
29724;SDS011;16636;48.394;15.468;2022-10-31T08:54:56;3.55;;;2.10;;
29724;SDS011;16636;48.394;15.468;2022-10-31T08:57:57;2.13;;;1.60;;
29724;SDS011;16636;48.394;15.468;2022-10-31T09:00:27;3.08;;;2.00;;
29724;SDS011;16636;48.394;15.468;2022-10-31T09:03:01;4.40;;;2.17;;
29724;SDS011;16636;48.394;15.468;2022-10-31T09:05:31;10.10;;;2.13;;
29724;SDS011;16636;48.394;15.468;2022-10-31T09:07:58;2.13;;;1.55;;
29724;SDS011;16636;48.394;15.468;2022-10-31T09:10:26;3.65;;;1.88;;
29724;SDS011;16636;48.394;15.468;2022-10-31T09:12:56;3.05;;;1.73;;
29724;SDS011;16636;48.394;15.468;2022-10-31T09:15:37;3.00;;;1.90;;
29724;SDS011;16636;48.394;15.468;2022-10-31T09:18:16;3.40;;;1.52;;
29724;SDS011;16636;48.394;15.468;2022-10-31T09:20:59;2.38;;;1.27;;
29724;SDS011;16636;48.394;15.468;2022-10-31T09:23:29;2.88;;;1.75;;
29724;SDS011;16636;48.394;15.468;2022-10-31T09:26:03;1.85;;;1.45;;
29724;SDS011;16636;48.394;15.468;2022-10-31T09:28:29;2.10;;;1.40;;
29724;SDS011;16636;48.394;15.468;2022-10-31T09:31:01;1.27;;;1.13;;
29724;SDS011;16636;48.394;15.468;2022-10-31T09:33:46;1.80;;;1.15;;
29724;SDS011;16636;48.394;15.468;2022-10-31T09:36:30;3.53;;;1.67;;
29724;SDS011;16636;48.394;15.468;2022-10-31T09:38:56;2.25;;;1.27;;
29724;SDS011;16636;48.394;15.468;2022-10-31T09:41:32;2.28;;;1.60;;
29724;SDS011;16636;48.394;15.468;2022-10-31T09:44:12;2.90;;;1.73;;
29724;SDS011;16636;48.394;15.468;2022-10-31T09:55:19;6.57;;;1.58;;
29724;SDS011;16636;48.394;15.468;2022-10-31T09:57:46;1.95;;;1.65;;
29724;SDS011;16636;48.394;15.468;2022-10-31T10:00:17;5.82;;;1.40;;
29724;SDS011;16636;48.394;15.468;2022-10-31T10:03:21;2.58;;;1.40;;
29724;SDS011;16636;48.394;15.468;2022-10-31T10:05:51;1.73;;;1.30;;
29724;SDS011;16636;48.394;15.468;2022-10-31T10:08:34;4.57;;;1.60;;
29724;SDS011;16636;48.394;15.468;2022-10-31T10:25:38;3.88;;;1.77;;
29724;SDS011;16636;48.394;15.468;2022-10-31T10:28:38;7.93;;;1.70;;
29724;SDS011;16636;48.394;15.468;2022-10-31T10:34:11;2.55;;;1.30;;
29724;SDS011;16636;48.394;15.468;2022-10-31T10:37:42;1.75;;;1.40;;
29724;SDS011;16636;48.394;15.468;2022-10-31T10:39:44;3.28;;;2.20;;
29724;SDS011;16636;48.394;15.468;2022-10-31T10:42:14;3.42;;;1.85;;
29724;SDS011;16636;48.394;15.468;2022-10-31T10:44:59;2.47;;;1.98;;
29724;SDS011;16636;48.394;15.468;2022-10-31T10:47:57;4.40;;;2.22;;
29724;SDS011;16636;48.394;15.468;2022-10-31T10:50:36;3.83;;;2.33;;
29724;SDS011;16636;48.394;15.468;2022-10-31T10:53:22;3.35;;;1.95;;
29724;SDS011;16636;48.394;15.468;2022-10-31T10:56:17;3.50;;;2.17;;
29724;SDS011;16636;48.394;15.468;2022-10-31T10:58:55;3.30;;;2.10;;
29724;SDS011;16636;48.394;15.468;2022-10-31T11:01:22;4.60;;;2.72;;
29724;SDS011;16636;48.394;15.468;2022-10-31T11:03:48;3.10;;;1.70;;
29724;SDS011;16636;48.394;15.468;2022-10-31T11:06:18;3.25;;;1.95;;
29724;SDS011;16636;48.394;15.468;2022-10-31T11:08:47;3.67;;;1.80;;
29724;SDS011;16636;48.394;15.468;2022-10-31T11:13:59;5.15;;;2.10;;
29724;SDS011;16636;48.394;15.468;2022-10-31T11:16:30;3.80;;;1.70;;
29724;SDS011;16636;48.394;15.468;2022-10-31T11:19:18;4.97;;;1.92;;
29724;SDS011;16636;48.394;15.468;2022-10-31T11:21:46;6.05;;;2.20;;
29724;SDS011;16636;48.394;15.468;2022-10-31T11:24:20;3.58;;;1.80;;
29724;SDS011;16636;48.394;15.468;2022-10-31T11:26:49;3.42;;;2.00;;
29724;SDS011;16636;48.394;15.468;2022-10-31T11:31:45;3.25;;;1.85;;
29724;SDS011;16636;48.394;15.468;2022-10-31T11:36:45;10.05;;;2.40;;
29724;SDS011;16636;48.394;15.468;2022-10-31T11:39:19;6.32;;;2.45;;
29724;SDS011;16636;48.394;15.468;2022-10-31T11:41:48;3.70;;;2.03;;
29724;SDS011;16636;48.394;15.468;2022-10-31T11:44:19;3.72;;;2.25;;
29724;SDS011;16636;48.394;15.468;2022-10-31T11:46:52;3.88;;;2.22;;
29724;SDS011;16636;48.394;15.468;2022-10-31T11:51:55;8.77;;;2.55;;
29724;SDS011;16636;48.394;15.468;2022-10-31T11:54:29;4.68;;;2.38;;
29724;SDS011;16636;48.394;15.468;2022-10-31T11:56:57;4.68;;;2.78;;
29724;SDS011;16636;48.394;15.468;2022-10-31T11:59:27;3.30;;;2.22;;
29724;SDS011;16636;48.394;15.468;2022-10-31T12:01:56;5.60;;;2.50;;
29724;SDS011;16636;48.394;15.468;2022-10-31T12:04:30;3.28;;;2.00;;
29724;SDS011;16636;48.394;15.468;2022-10-31T12:07:03;3.60;;;2.25;;
29724;SDS011;16636;48.394;15.468;2022-10-31T12:09:30;5.78;;;2.75;;
29724;SDS011;16636;48.394;15.468;2022-10-31T12:20:43;5.10;;;2.30;;
29724;SDS011;16636;48.394;15.468;2022-10-31T12:29:02;4.68;;;3.05;;
29724;SDS011;16636;48.394;15.468;2022-10-31T12:31:36;5.03;;;2.53;;
29724;SDS011;16636;48.394;15.468;2022-10-31T12:40:03;5.20;;;2.80;;
29724;SDS011;16636;48.394;15.468;2022-10-31T12:45:54;4.53;;;3.08;;
29724;SDS011;16636;48.394;15.468;2022-10-31T12:54:17;6.70;;;2.63;;
29724;SDS011;16636;48.394;15.468;2022-10-31T12:59:48;6.20;;;3.17;;
29724;SDS011;16636;48.394;15.468;2022-10-31T13:02:32;5.10;;;3.70;;
29724;SDS011;16636;48.394;15.468;2022-10-31T13:08:08;7.28;;;3.67;;
29724;SDS011;16636;48.394;15.468;2022-10-31T13:10:44;4.13;;;3.08;;
29724;SDS011;16636;48.394;15.468;2022-10-31T13:13:23;6.00;;;3.40;;
29724;SDS011;16636;48.394;15.468;2022-10-31T13:16:00;4.15;;;2.67;;
29724;SDS011;16636;48.394;15.468;2022-10-31T13:18:42;7.73;;;3.07;;
29724;SDS011;16636;48.394;15.468;2022-10-31T13:21:22;8.27;;;4.10;;
29724;SDS011;16636;48.394;15.468;2022-10-31T13:23:55;8.75;;;4.10;;
29724;SDS011;16636;48.394;15.468;2022-10-31T13:26:42;8.10;;;3.88;;
29724;SDS011;16636;48.394;15.468;2022-10-31T13:29:15;7.18;;;3.30;;
29724;SDS011;16636;48.394;15.468;2022-10-31T13:31:42;9.30;;;4.82;;
29724;SDS011;16636;48.394;15.468;2022-10-31T13:34:10;8.13;;;4.25;;
29724;SDS011;16636;48.394;15.468;2022-10-31T13:36:50;5.55;;;3.90;;
29724;SDS011;16636;48.394;15.468;2022-10-31T13:42:15;6.30;;;4.18;;
29724;SDS011;16636;48.394;15.468;2022-10-31T13:44:49;8.50;;;4.85;;
29724;SDS011;16636;48.394;15.468;2022-10-31T13:47:20;10.27;;;5.00;;
29724;SDS011;16636;48.394;15.468;2022-10-31T13:49:51;6.97;;;4.43;;
29724;SDS011;16636;48.394;15.468;2022-10-31T13:52:29;7.13;;;4.60;;
29724;SDS011;16636;48.394;15.468;2022-10-31T13:54:55;20.63;;;7.07;;
29724;SDS011;16636;48.394;15.468;2022-10-31T14:02:51;8.98;;;5.22;;
29724;SDS011;16636;48.394;15.468;2022-10-31T14:07:51;8.77;;;5.20;;
29724;SDS011;16636;48.394;15.468;2022-10-31T14:10:20;7.38;;;4.60;;
29724;SDS011;16636;48.394;15.468;2022-10-31T14:12:52;9.27;;;5.38;;
29724;SDS011;16636;48.394;15.468;2022-10-31T14:15:52;7.50;;;4.07;;
29724;SDS011;16636;48.394;15.468;2022-10-31T14:20:59;8.57;;;4.70;;
29724;SDS011;16636;48.394;15.468;2022-10-31T14:28:44;8.65;;;4.75;;
29724;SDS011;16636;48.394;15.468;2022-10-31T14:31:25;7.25;;;4.25;;
29724;SDS011;16636;48.394;15.468;2022-10-31T14:33:58;12.43;;;6.03;;
29724;SDS011;16636;48.394;15.468;2022-10-31T14:36:32;8.65;;;5.57;;
29724;SDS011;16636;48.394;15.468;2022-10-31T14:39:18;11.60;;;6.57;;
29724;SDS011;16636;48.394;15.468;2022-10-31T14:50:48;7.90;;;4.30;;
29724;SDS011;16636;48.394;15.468;2022-10-31T14:55:55;14.73;;;5.68;;
29724;SDS011;16636;48.394;15.468;2022-10-31T14:58:28;6.65;;;4.05;;
29724;SDS011;16636;48.394;15.468;2022-10-31T15:01:00;8.80;;;5.28;;
29724;SDS011;16636;48.394;15.468;2022-10-31T15:06:10;12.30;;;4.78;;
29724;SDS011;16636;48.394;15.468;2022-10-31T15:08:39;7.75;;;4.93;;
29724;SDS011;16636;48.394;15.468;2022-10-31T15:11:17;7.80;;;4.90;;
29724;SDS011;16636;48.394;15.468;2022-10-31T15:13:48;16.38;;;5.65;;
29724;SDS011;16636;48.394;15.468;2022-10-31T15:16:20;12.23;;;6.65;;
29724;SDS011;16636;48.394;15.468;2022-10-31T15:18:52;13.65;;;7.03;;
29724;SDS011;16636;48.394;15.468;2022-10-31T15:21:19;9.38;;;5.47;;
29724;SDS011;16636;48.394;15.468;2022-10-31T15:23:47;8.15;;;5.38;;
29724;SDS011;16636;48.394;15.468;2022-10-31T15:26:16;9.02;;;5.07;;
29724;SDS011;16636;48.394;15.468;2022-10-31T15:28:44;9.32;;;5.50;;
29724;SDS011;16636;48.394;15.468;2022-10-31T15:31:15;10.00;;;6.43;;
29724;SDS011;16636;48.394;15.468;2022-10-31T15:33:42;14.10;;;5.65;;
29724;SDS011;16636;48.394;15.468;2022-10-31T15:36:20;7.50;;;4.75;;
29724;SDS011;16636;48.394;15.468;2022-10-31T15:38:47;13.02;;;5.38;;
29724;SDS011;16636;48.394;15.468;2022-10-31T15:44:23;7.93;;;5.10;;
29724;SDS011;16636;48.394;15.468;2022-10-31T15:46:56;7.30;;;4.03;;
29724;SDS011;16636;48.394;15.468;2022-10-31T15:49:35;13.98;;;6.10;;
29724;SDS011;16636;48.394;15.468;2022-10-31T15:57:44;16.27;;;7.72;;
29724;SDS011;16636;48.394;15.468;2022-10-31T16:00:25;13.05;;;7.05;;
29724;SDS011;16636;48.394;15.468;2022-10-31T16:10:49;14.25;;;7.10;;
29724;SDS011;16636;48.394;15.468;2022-10-31T16:13:15;13.40;;;7.18;;
29724;SDS011;16636;48.394;15.468;2022-10-31T16:15:48;16.45;;;8.15;;
29724;SDS011;16636;48.394;15.468;2022-10-31T16:18:16;16.20;;;8.50;;
29724;SDS011;16636;48.394;15.468;2022-10-31T16:20:47;13.57;;;8.18;;
29724;SDS011;16636;48.394;15.468;2022-10-31T16:23:16;11.55;;;6.72;;
29724;SDS011;16636;48.394;15.468;2022-10-31T16:25:43;12.80;;;6.20;;
29724;SDS011;16636;48.394;15.468;2022-10-31T16:28:13;11.18;;;5.78;;
29724;SDS011;16636;48.394;15.468;2022-10-31T16:30:56;8.00;;;4.90;;
29724;SDS011;16636;48.394;15.468;2022-10-31T16:33:33;8.88;;;4.90;;
29724;SDS011;16636;48.394;15.468;2022-10-31T16:36:28;10.07;;;4.13;;
29724;SDS011;16636;48.394;15.468;2022-10-31T16:38:53;8.80;;;4.05;;
29724;SDS011;16636;48.394;15.468;2022-10-31T16:41:20;10.23;;;4.95;;
29724;SDS011;16636;48.394;15.468;2022-10-31T16:43:52;12.95;;;4.50;;
29724;SDS011;16636;48.394;15.468;2022-10-31T16:46:21;6.63;;;3.60;;
29724;SDS011;16636;48.394;15.468;2022-10-31T16:48:48;4.93;;;3.72;;
29724;SDS011;16636;48.394;15.468;2022-10-31T16:51:15;7.90;;;3.58;;
29724;SDS011;16636;48.394;15.468;2022-10-31T16:53:41;6.82;;;4.00;;
29724;SDS011;16636;48.394;15.468;2022-10-31T16:56:11;6.38;;;3.38;;
29724;SDS011;16636;48.394;15.468;2022-10-31T16:58:43;5.50;;;3.65;;
29724;SDS011;16636;48.394;15.468;2022-10-31T17:01:10;5.43;;;3.33;;
29724;SDS011;16636;48.394;15.468;2022-10-31T17:03:37;7.32;;;4.20;;
29724;SDS011;16636;48.394;15.468;2022-10-31T17:06:03;11.23;;;6.22;;
29724;SDS011;16636;48.394;15.468;2022-10-31T17:08:29;12.93;;;6.53;;
29724;SDS011;16636;48.394;15.468;2022-10-31T17:10:56;17.75;;;8.38;;
29724;SDS011;16636;48.394;15.468;2022-10-31T17:13:23;11.60;;;5.30;;
29724;SDS011;16636;48.394;15.468;2022-10-31T17:15:55;12.68;;;5.95;;
29724;SDS011;16636;48.394;15.468;2022-10-31T17:18:23;7.78;;;4.28;;
29724;SDS011;16636;48.394;15.468;2022-10-31T17:20:49;6.22;;;4.03;;
29724;SDS011;16636;48.394;15.468;2022-10-31T17:23:16;8.68;;;4.43;;
29724;SDS011;16636;48.394;15.468;2022-10-31T17:25:42;6.55;;;4.15;;
29724;SDS011;16636;48.394;15.468;2022-10-31T17:28:10;9.88;;;4.40;;
29724;SDS011;16636;48.394;15.468;2022-10-31T17:30:38;7.40;;;4.78;;
29724;SDS011;16636;48.394;15.468;2022-10-31T17:33:05;10.80;;;4.68;;
29724;SDS011;16636;48.394;15.468;2022-10-31T17:35:31;9.23;;;4.18;;
29724;SDS011;16636;48.394;15.468;2022-10-31T17:37:57;6.53;;;4.00;;